Sunday, October 22, 2017, 5:12 PM EDT
Back to Local

KDUJ, Du Bois-jefferson County

Location: Reynoldsville, PA, United States Lat: 41.183
Local Time: 5:12 PM EDT (21:12 GMT) Lon: -78.883
Time Zone: US/Eastern Elev: 1820 ft

Show me the last for .
Show Coded

Time T Td Feel RH Dir Speed Gust Alt SLP Vis Weather Sky Remarks
2017-10-22 16:53 70 49 - 47 110° 6 - 30.23 30.21 10 CLR None
2017-10-22 15:53 73 49 76 42 150° 8 - 30.25 30.23 10 CLR None
2017-10-22 14:53 72 48 76 42 170° 6 - 30.25 30.23 10 CLR None
2017-10-22 13:53 73 50 76 44 150° 8 - 30.28 30.26 10 CLR 6-hr Min Temp (2pm): 53.1°F
6-hr Max Temp (2pm): 73.9°F
2017-10-22 12:53 72 50 76 45 Variable 5 - 30.30 30.28 10 CLR None
2017-10-22 11:53 69 49 - 48 Variable 7 - 30.32 30.30 10 CLR None
2017-10-22 10:53 63 47 - 55 Variable 7 - 30.32 30.31 10 CLR None
2017-10-22 09:53 59 45 - 59 120° 9 - 30.33 30.33 10 CLR None
2017-10-22 08:53 56 44 - 64 110° 7 - 30.34 30.33 10 CLR None
2017-10-22 07:53 52 42 - 68 110° 8 - 30.33 30.32 10 CLR 6-hr Min Temp (8am): 50.0°F
6-hr Max Temp (8am): 55.9°F
2017-10-22 06:53 51 41 - 68 120° 5 - 30.33 30.32 10 CLR None
2017-10-22 05:53 53 41 - 63 110° 6 - 30.33 30.32 10 CLR None
2017-10-22 04:53 53 41 - 63 110° 5 - 30.31 30.30 10 CLR None
2017-10-22 03:53 54 41 - 61 120° 6 - 30.29 30.27 10 CLR None
2017-10-22 02:53 55 41 - 59 130° 9 - 30.29 30.27 10 CLR None
2017-10-22 01:53 56 41 - 57 130° 8 - 30.29 30.27 10 CLR 6-hr Min Temp (2am): 55.0°F
6-hr Max Temp (2am): 62.1°F
2017-10-22 00:53 56 42 - 59 120° 7 - 30.30 30.28 10 CLR None
2017-10-21 23:53 57 41 - 54 130° 8 - 30.31 30.29 10 CLR None
2017-10-21 22:53 59 41 - 51 130° 9 - 30.31 30.30 10 CLR None
2017-10-21 21:53 59 41 - 51 130° 7 - 30.32 30.32 10 CLR None
2017-10-21 20:53 61 42 - 49 110° 7 - 30.32 - 10 CLR None
2017-10-21 19:53 62 41 - 45 120° 7 - 30.32 - 10 CLR 6-hr Min Temp (8pm): 62.1°F
6-hr Max Temp (8pm): 72.0°F
2017-10-21 18:53 64 40 - 41 130° 6 - 30.31 - 10 CLR None
2017-10-21 17:53 67 40 - 37 110° 7 - 30.29 - 10 CLR None

Support USWX by starting your Amazon purchase here.